sensor_id;sensor_type;location;lat;lon;timestamp;temperature;humidity
34833;DHT22;55941;50.800;4.342;2023-04-16T00:00:31;9.50;99.90
34833;DHT22;55941;50.800;4.342;2023-04-16T00:02:57;9.70;99.90
34833;DHT22;55941;50.800;4.342;2023-04-16T00:05:23;9.70;99.90
34833;DHT22;55941;50.800;4.342;2023-04-16T00:07:49;9.70;99.90
34833;DHT22;55941;50.800;4.342;2023-04-16T00:10:16;9.80;99.90
34833;DHT22;55941;50.800;4.342;2023-04-16T00:12:42;9.60;99.90
34833;DHT22;55941;50.800;4.342;2023-04-16T00:15:09;9.60;99.90
34833;DHT22;55941;50.800;4.342;2023-04-16T00:17:35;9.70;99.90
34833;DHT22;55941;50.800;4.342;2023-04-16T00:20:01;9.70;99.90
34833;DHT22;55941;50.800;4.342;2023-04-16T00:22:27;9.70;99.90
34833;DHT22;55941;50.800;4.342;2023-04-16T00:24:53;9.70;99.90
34833;DHT22;55941;50.800;4.342;2023-04-16T00:27:19;9.70;99.90
34833;DHT22;55941;50.800;4.342;2023-04-16T00:29:45;9.70;99.90
34833;DHT22;55941;50.800;4.342;2023-04-16T00:32:11;9.60;99.90
34833;DHT22;55941;50.800;4.342;2023-04-16T00:34:37;9.60;99.90
34833;DHT22;55941;50.800;4.342;2023-04-16T00:37:03;9.70;99.90
34833;DHT22;55941;50.800;4.342;2023-04-16T00:39:29;9.80;99.90
34833;DHT22;55941;50.800;4.342;2023-04-16T00:41:55;9.80;99.90
34833;DHT22;55941;50.800;4.342;2023-04-16T00:44:20;9.70;99.90
34833;DHT22;55941;50.800;4.342;2023-04-16T00:46:47;9.70;99.90
34833;DHT22;55941;50.800;4.342;2023-04-16T00:49:13;9.70;99.90
34833;DHT22;55941;50.800;4.342;2023-04-16T00:51:40;9.70;99.90
34833;DHT22;55941;50.800;4.342;2023-04-16T00:54:06;9.70;99.90
34833;DHT22;55941;50.800;4.342;2023-04-16T00:56:33;9.70;99.90
34833;DHT22;55941;50.800;4.342;2023-04-16T00:59:00;9.80;99.90
34833;DHT22;55941;50.800;4.342;2023-04-16T01:01:26;9.80;99.90
34833;DHT22;55941;50.800;4.342;2023-04-16T01:03:53;9.70;99.90
34833;DHT22;55941;50.800;4.342;2023-04-16T01:06:19;10.00;99.90
34833;DHT22;55941;50.800;4.342;2023-04-16T01:08:46;9.80;99.90
34833;DHT22;55941;50.800;4.342;2023-04-16T01:11:14;9.70;99.90
34833;DHT22;55941;50.800;4.342;2023-04-16T01:13:40;9.80;99.90
34833;DHT22;55941;50.800;4.342;2023-04-16T01:16:07;9.70;99.90
34833;DHT22;55941;50.800;4.342;2023-04-16T01:18:34;9.80;99.90
34833;DHT22;55941;50.800;4.342;2023-04-16T01:21:00;9.80;99.90
34833;DHT22;55941;50.800;4.342;2023-04-16T01:23:26;9.90;99.90
34833;DHT22;55941;50.800;4.342;2023-04-16T01:25:52;9.80;99.90
34833;DHT22;55941;50.800;4.342;2023-04-16T01:28:17;9.80;99.90
34833;DHT22;55941;50.800;4.342;2023-04-16T01:30:43;9.80;99.90
34833;DHT22;55941;50.800;4.342;2023-04-16T01:33:10;9.70;99.90
34833;DHT22;55941;50.800;4.342;2023-04-16T01:35:37;9.70;99.90
34833;DHT22;55941;50.800;4.342;2023-04-16T01:38:04;9.60;99.90
34833;DHT22;55941;50.800;4.342;2023-04-16T01:40:30;9.90;99.90
34833;DHT22;55941;50.800;4.342;2023-04-16T01:42:56;9.70;99.90
34833;DHT22;55941;50.800;4.342;2023-04-16T01:45:21;9.80;99.90
34833;DHT22;55941;50.800;4.342;2023-04-16T01:47:49;9.80;99.90
34833;DHT22;55941;50.800;4.342;2023-04-16T01:50:16;9.80;99.90
34833;DHT22;55941;50.800;4.342;2023-04-16T01:52:42;9.80;99.90
34833;DHT22;55941;50.800;4.342;2023-04-16T01:55:08;9.80;99.90
34833;DHT22;55941;50.800;4.342;2023-04-16T01:57:35;9.70;99.90
34833;DHT22;55941;50.800;4.342;2023-04-16T02:00:01;9.80;99.90
34833;DHT22;55941;50.800;4.342;2023-04-16T02:02:28;9.70;99.90
34833;DHT22;55941;50.800;4.342;2023-04-16T02:04:54;9.80;99.90
34833;DHT22;55941;50.800;4.342;2023-04-16T02:07:24;9.90;99.90
34833;DHT22;55941;50.800;4.342;2023-04-16T02:09:50;9.80;99.90
34833;DHT22;55941;50.800;4.342;2023-04-16T02:12:17;9.80;99.90
34833;DHT22;55941;50.800;4.342;2023-04-16T02:14:43;9.70;99.90
34833;DHT22;55941;50.800;4.342;2023-04-16T02:17:08;9.70;99.90
34833;DHT22;55941;50.800;4.342;2023-04-16T02:19:35;9.80;99.90
34833;DHT22;55941;50.800;4.342;2023-04-16T02:22:02;9.70;99.90
34833;DHT22;55941;50.800;4.342;2023-04-16T02:24:29;9.80;99.90
34833;DHT22;55941;50.800;4.342;2023-04-16T02:26:58;9.80;99.90
34833;DHT22;55941;50.800;4.342;2023-04-16T02:29:24;9.80;99.90
34833;DHT22;55941;50.800;4.342;2023-04-16T02:31:50;9.80;99.90
34833;DHT22;55941;50.800;4.342;2023-04-16T02:34:16;9.70;99.90
34833;DHT22;55941;50.800;4.342;2023-04-16T02:36:41;9.70;99.90
34833;DHT22;55941;50.800;4.342;2023-04-16T02:39:07;9.60;99.90
34833;DHT22;55941;50.800;4.342;2023-04-16T02:41:34;9.60;99.90
34833;DHT22;55941;50.800;4.342;2023-04-16T02:44:00;9.60;99.90
34833;DHT22;55941;50.800;4.342;2023-04-16T02:46:25;9.70;99.90
34833;DHT22;55941;50.800;4.342;2023-04-16T02:48:51;9.70;99.90
34833;DHT22;55941;50.800;4.342;2023-04-16T02:51:17;9.70;99.90
34833;DHT22;55941;50.800;4.342;2023-04-16T02:53:43;9.70;99.90
34833;DHT22;55941;50.800;4.342;2023-04-16T02:56:10;9.70;99.90
34833;DHT22;55941;50.800;4.342;2023-04-16T02:58:37;9.70;99.90
34833;DHT22;55941;50.800;4.342;2023-04-16T03:01:03;9.70;99.90
34833;DHT22;55941;50.800;4.342;2023-04-16T03:03:28;9.80;99.90
34833;DHT22;55941;50.800;4.342;2023-04-16T03:05:54;9.70;99.90
34833;DHT22;55941;50.800;4.342;2023-04-16T03:08:20;9.80;99.90
34833;DHT22;55941;50.800;4.342;2023-04-16T03:10:48;9.70;99.90
34833;DHT22;55941;50.800;4.342;2023-04-16T03:13:14;9.70;99.90
34833;DHT22;55941;50.800;4.342;2023-04-16T03:15:47;9.70;99.90
34833;DHT22;55941;50.800;4.342;2023-04-16T03:18:14;9.70;99.90
34833;DHT22;55941;50.800;4.342;2023-04-16T03:20:40;9.80;99.90
34833;DHT22;55941;50.800;4.342;2023-04-16T03:23:06;9.60;99.90
34833;DHT22;55941;50.800;4.342;2023-04-16T03:25:32;9.50;99.90
34833;DHT22;55941;50.800;4.342;2023-04-16T03:27:58;9.70;99.90
34833;DHT22;55941;50.800;4.342;2023-04-16T03:30:23;9.80;99.90
34833;DHT22;55941;50.800;4.342;2023-04-16T03:32:49;9.60;99.90
34833;DHT22;55941;50.800;4.342;2023-04-16T03:35:16;9.70;99.90
34833;DHT22;55941;50.800;4.342;2023-04-16T03:37:42;9.70;99.90
34833;DHT22;55941;50.800;4.342;2023-04-16T03:40:09;9.60;99.90
34833;DHT22;55941;50.800;4.342;2023-04-16T03:42:35;9.60;99.90
34833;DHT22;55941;50.800;4.342;2023-04-16T03:45:01;9.60;99.90
34833;DHT22;55941;50.800;4.342;2023-04-16T03:47:27;9.80;99.90
34833;DHT22;55941;50.800;4.342;2023-04-16T03:49:53;9.90;99.90
34833;DHT22;55941;50.800;4.342;2023-04-16T03:52:18;10.00;99.90
34833;DHT22;55941;50.800;4.342;2023-04-16T03:54:44;9.90;99.90
34833;DHT22;55941;50.800;4.342;2023-04-16T03:57:11;9.90;99.90
34833;DHT22;55941;50.800;4.342;2023-04-16T03:59:37;9.90;99.90
34833;DHT22;55941;50.800;4.342;2023-04-16T04:02:02;9.90;99.90
34833;DHT22;55941;50.800;4.342;2023-04-16T04:04:28;9.80;99.90
34833;DHT22;55941;50.800;4.342;2023-04-16T04:06:54;9.70;99.90
34833;DHT22;55941;50.800;4.342;2023-04-16T04:09:20;9.80;99.90
34833;DHT22;55941;50.800;4.342;2023-04-16T04:11:47;9.90;99.90
34833;DHT22;55941;50.800;4.342;2023-04-16T04:14:13;9.90;99.90
34833;DHT22;55941;50.800;4.342;2023-04-16T04:16:39;9.90;99.90
34833;DHT22;55941;50.800;4.342;2023-04-16T04:19:05;9.80;99.90
34833;DHT22;55941;50.800;4.342;2023-04-16T04:21:30;9.80;99.90
34833;DHT22;55941;50.800;4.342;2023-04-16T04:23:59;9.80;99.90
34833;DHT22;55941;50.800;4.342;2023-04-16T04:26:25;9.70;99.90
34833;DHT22;55941;50.800;4.342;2023-04-16T04:28:51;9.80;99.90
34833;DHT22;55941;50.800;4.342;2023-04-16T04:31:16;9.70;99.90
34833;DHT22;55941;50.800;4.342;2023-04-16T04:33:42;9.60;99.90
34833;DHT22;55941;50.800;4.342;2023-04-16T04:36:08;9.70;99.90
34833;DHT22;55941;50.800;4.342;2023-04-16T04:38:34;9.60;99.90
34833;DHT22;55941;50.800;4.342;2023-04-16T04:41:00;9.70;99.90
34833;DHT22;55941;50.800;4.342;2023-04-16T04:43:26;9.60;99.90
34833;DHT22;55941;50.800;4.342;2023-04-16T04:45:52;9.50;99.90
34833;DHT22;55941;50.800;4.342;2023-04-16T04:48:19;9.50;99.90
34833;DHT22;55941;50.800;4.342;2023-04-16T04:50:51;9.40;99.90
34833;DHT22;55941;50.800;4.342;2023-04-16T04:53:18;9.50;99.90
34833;DHT22;55941;50.800;4.342;2023-04-16T04:55:44;9.60;99.90
34833;DHT22;55941;50.800;4.342;2023-04-16T04:58:10;9.40;99.90
34833;DHT22;55941;50.800;4.342;2023-04-16T05:00:36;9.50;99.90
34833;DHT22;55941;50.800;4.342;2023-04-16T05:03:04;9.50;99.90
34833;DHT22;55941;50.800;4.342;2023-04-16T05:05:31;9.40;99.90
34833;DHT22;55941;50.800;4.342;2023-04-16T05:07:57;9.30;99.90
34833;DHT22;55941;50.800;4.342;2023-04-16T05:10:23;9.30;99.90
34833;DHT22;55941;50.800;4.342;2023-04-16T05:12:50;9.40;99.90
34833;DHT22;55941;50.800;4.342;2023-04-16T05:15:16;9.40;99.90
34833;DHT22;55941;50.800;4.342;2023-04-16T05:17:42;9.40;99.90
34833;DHT22;55941;50.800;4.342;2023-04-16T05:20:08;9.60;99.90
34833;DHT22;55941;50.800;4.342;2023-04-16T05:22:35;9.60;99.90
34833;DHT22;55941;50.800;4.342;2023-04-16T05:25:03;9.60;99.90
34833;DHT22;55941;50.800;4.342;2023-04-16T05:27:29;9.70;99.90
34833;DHT22;55941;50.800;4.342;2023-04-16T05:29:55;9.60;99.90
34833;DHT22;55941;50.800;4.342;2023-04-16T05:32:21;9.70;99.90
34833;DHT22;55941;50.800;4.342;2023-04-16T05:34:47;9.70;99.90
34833;DHT22;55941;50.800;4.342;2023-04-16T05:37:13;9.70;99.90
34833;DHT22;55941;50.800;4.342;2023-04-16T05:39:40;9.70;99.90
34833;DHT22;55941;50.800;4.342;2023-04-16T05:42:06;9.90;99.90
34833;DHT22;55941;50.800;4.342;2023-04-16T05:44:33;9.90;99.90
34833;DHT22;55941;50.800;4.342;2023-04-16T05:46:59;9.90;99.90
34833;DHT22;55941;50.800;4.342;2023-04-16T05:49:25;9.80;99.90
34833;DHT22;55941;50.800;4.342;2023-04-16T05:51:51;9.70;99.90
34833;DHT22;55941;50.800;4.342;2023-04-16T05:54:17;9.70;99.90
34833;DHT22;55941;50.800;4.342;2023-04-16T05:56:43;9.60;99.90
34833;DHT22;55941;50.800;4.342;2023-04-16T05:59:09;9.70;99.90
34833;DHT22;55941;50.800;4.342;2023-04-16T06:01:35;9.70;99.90
34833;DHT22;55941;50.800;4.342;2023-04-16T06:04:02;9.60;99.90
34833;DHT22;55941;50.800;4.342;2023-04-16T06:06:28;9.70;99.90
34833;DHT22;55941;50.800;4.342;2023-04-16T06:08:54;9.80;99.90
34833;DHT22;55941;50.800;4.342;2023-04-16T06:11:20;9.80;99.90
34833;DHT22;55941;50.800;4.342;2023-04-16T06:13:47;9.80;99.90
34833;DHT22;55941;50.800;4.342;2023-04-16T06:16:13;9.70;99.90
34833;DHT22;55941;50.800;4.342;2023-04-16T06:18:38;9.70;99.90
34833;DHT22;55941;50.800;4.342;2023-04-16T06:21:05;9.70;99.90
34833;DHT22;55941;50.800;4.342;2023-04-16T06:23:31;9.80;99.90
34833;DHT22;55941;50.800;4.342;2023-04-16T06:25:57;9.70;99.90
34833;DHT22;55941;50.800;4.342;2023-04-16T06:28:23;9.70;99.90
34833;DHT22;55941;50.800;4.342;2023-04-16T06:30:49;9.80;99.90
34833;DHT22;55941;50.800;4.342;2023-04-16T06:33:15;9.80;99.90
34833;DHT22;55941;50.800;4.342;2023-04-16T06:35:41;9.60;99.90
34833;DHT22;55941;50.800;4.342;2023-04-16T06:38:07;9.70;99.90
34833;DHT22;55941;50.800;4.342;2023-04-16T06:40:33;9.60;99.90
34833;DHT22;55941;50.800;4.342;2023-04-16T06:43:01;9.70;99.90
34833;DHT22;55941;50.800;4.342;2023-04-16T06:45:28;9.70;99.90
34833;DHT22;55941;50.800;4.342;2023-04-16T06:47:54;9.70;99.90
34833;DHT22;55941;50.800;4.342;2023-04-16T06:50:20;9.60;99.90
34833;DHT22;55941;50.800;4.342;2023-04-16T06:52:47;9.50;99.90
34833;DHT22;55941;50.800;4.342;2023-04-16T06:55:14;9.60;99.90
34833;DHT22;55941;50.800;4.342;2023-04-16T06:57:39;9.50;99.90
34833;DHT22;55941;50.800;4.342;2023-04-16T07:00:06;9.50;99.90
34833;DHT22;55941;50.800;4.342;2023-04-16T07:02:33;9.50;99.90
34833;DHT22;55941;50.800;4.342;2023-04-16T07:05:00;9.60;99.90
34833;DHT22;55941;50.800;4.342;2023-04-16T07:07:26;9.50;99.90
34833;DHT22;55941;50.800;4.342;2023-04-16T07:09:52;9.50;99.90
34833;DHT22;55941;50.800;4.342;2023-04-16T07:12:19;9.70;99.90
34833;DHT22;55941;50.800;4.342;2023-04-16T07:14:45;9.70;99.90
34833;DHT22;55941;50.800;4.342;2023-04-16T07:17:11;9.80;99.90
34833;DHT22;55941;50.800;4.342;2023-04-16T07:19:37;9.90;99.90
34833;DHT22;55941;50.800;4.342;2023-04-16T07:22:03;9.90;99.90
34833;DHT22;55941;50.800;4.342;2023-04-16T07:24:29;10.00;99.90
34833;DHT22;55941;50.800;4.342;2023-04-16T07:26:56;10.00;99.90
34833;DHT22;55941;50.800;4.342;2023-04-16T07:29:25;10.00;99.90
34833;DHT22;55941;50.800;4.342;2023-04-16T07:31:51;9.90;99.90
34833;DHT22;55941;50.800;4.342;2023-04-16T07:34:17;10.00;99.90
34833;DHT22;55941;50.800;4.342;2023-04-16T07:36:44;10.00;99.90
34833;DHT22;55941;50.800;4.342;2023-04-16T07:39:10;9.90;99.90
34833;DHT22;55941;50.800;4.342;2023-04-16T07:41:37;9.90;99.90
34833;DHT22;55941;50.800;4.342;2023-04-16T07:44:05;10.10;99.90
34833;DHT22;55941;50.800;4.342;2023-04-16T07:46:31;9.90;99.90
34833;DHT22;55941;50.800;4.342;2023-04-16T07:48:57;9.90;99.90
34833;DHT22;55941;50.800;4.342;2023-04-16T07:51:23;10.00;99.90
34833;DHT22;55941;50.800;4.342;2023-04-16T07:53:49;9.90;99.90
34833;DHT22;55941;50.800;4.342;2023-04-16T07:56:15;10.00;99.90
34833;DHT22;55941;50.800;4.342;2023-04-16T07:58:41;10.00;99.90
34833;DHT22;55941;50.800;4.342;2023-04-16T08:01:10;10.00;99.90
34833;DHT22;55941;50.800;4.342;2023-04-16T08:03:35;10.00;99.90
34833;DHT22;55941;50.800;4.342;2023-04-16T08:06:01;10.00;99.90
34833;DHT22;55941;50.800;4.342;2023-04-16T08:08:27;9.90;99.90
34833;DHT22;55941;50.800;4.342;2023-04-16T08:10:54;9.80;99.90
34833;DHT22;55941;50.800;4.342;2023-04-16T08:13:23;9.90;99.90
34833;DHT22;55941;50.800;4.342;2023-04-16T08:15:49;10.00;99.90
34833;DHT22;55941;50.800;4.342;2023-04-16T08:18:15;10.00;99.90
34833;DHT22;55941;50.800;4.342;2023-04-16T08:20:42;10.10;99.90
34833;DHT22;55941;50.800;4.342;2023-04-16T08:23:08;10.10;99.90
34833;DHT22;55941;50.800;4.342;2023-04-16T08:25:34;10.20;99.90
34833;DHT22;55941;50.800;4.342;2023-04-16T08:28:00;10.20;99.90
34833;DHT22;55941;50.800;4.342;2023-04-16T08:30:27;10.20;99.90
34833;DHT22;55941;50.800;4.342;2023-04-16T08:32:53;10.30;99.90
34833;DHT22;55941;50.800;4.342;2023-04-16T08:35:19;10.30;99.90
34833;DHT22;55941;50.800;4.342;2023-04-16T08:37:45;10.30;99.90
34833;DHT22;55941;50.800;4.342;2023-04-16T08:40:11;10.30;99.90
34833;DHT22;55941;50.800;4.342;2023-04-16T08:42:55;10.20;99.90
34833;DHT22;55941;50.800;4.342;2023-04-16T08:45:25;10.20;99.90
34833;DHT22;55941;50.800;4.342;2023-04-16T08:47:52;10.20;99.90
34833;DHT22;55941;50.800;4.342;2023-04-16T08:50:23;10.40;99.90
34833;DHT22;55941;50.800;4.342;2023-04-16T08:53:01;10.50;99.90
34833;DHT22;55941;50.800;4.342;2023-04-16T08:55:46;10.50;99.90
34833;DHT22;55941;50.800;4.342;2023-04-16T08:58:14;10.50;99.90
34833;DHT22;55941;50.800;4.342;2023-04-16T09:00:41;10.60;99.90
34833;DHT22;55941;50.800;4.342;2023-04-16T09:03:11;10.30;99.90
34833;DHT22;55941;50.800;4.342;2023-04-16T09:05:38;10.30;99.90
34833;DHT22;55941;50.800;4.342;2023-04-16T09:08:05;10.30;99.90
34833;DHT22;55941;50.800;4.342;2023-04-16T09:10:31;10.30;99.90
34833;DHT22;55941;50.800;4.342;2023-04-16T09:12:58;10.40;99.90
34833;DHT22;55941;50.800;4.342;2023-04-16T09:15:24;10.30;99.90
34833;DHT22;55941;50.800;4.342;2023-04-16T09:17:51;10.40;99.90
34833;DHT22;55941;50.800;4.342;2023-04-16T09:20:18;10.30;99.90
34833;DHT22;55941;50.800;4.342;2023-04-16T09:22:44;10.20;99.90
34833;DHT22;55941;50.800;4.342;2023-04-16T09:25:11;10.30;99.90
34833;DHT22;55941;50.800;4.342;2023-04-16T09:27:38;10.30;99.90
34833;DHT22;55941;50.800;4.342;2023-04-16T09:30:20;10.40;99.90
34833;DHT22;55941;50.800;4.342;2023-04-16T09:32:46;10.40;99.90
34833;DHT22;55941;50.800;4.342;2023-04-16T09:35:13;10.30;99.90
34833;DHT22;55941;50.800;4.342;2023-04-16T09:37:40;10.30;99.90
34833;DHT22;55941;50.800;4.342;2023-04-16T09:40:06;10.30;99.90
34833;DHT22;55941;50.800;4.342;2023-04-16T09:42:36;10.30;99.90
34833;DHT22;55941;50.800;4.342;2023-04-16T09:45:02;10.40;99.90
34833;DHT22;55941;50.800;4.342;2023-04-16T09:47:39;10.40;99.90
34833;DHT22;55941;50.800;4.342;2023-04-16T09:50:06;10.50;99.90
34833;DHT22;55941;50.800;4.342;2023-04-16T09:52:35;10.50;99.90
34833;DHT22;55941;50.800;4.342;2023-04-16T09:55:05;10.60;99.90
34833;DHT22;55941;50.800;4.342;2023-04-16T09:57:32;10.70;99.90
34833;DHT22;55941;50.800;4.342;2023-04-16T10:00:04;10.70;99.90
34833;DHT22;55941;50.800;4.342;2023-04-16T10:02:31;10.60;99.90
34833;DHT22;55941;50.800;4.342;2023-04-16T10:05:01;10.70;99.90
34833;DHT22;55941;50.800;4.342;2023-04-16T10:07:33;10.80;99.90
34833;DHT22;55941;50.800;4.342;2023-04-16T10:09:59;10.80;99.90
34833;DHT22;55941;50.800;4.342;2023-04-16T10:12:26;10.70;99.90
34833;DHT22;55941;50.800;4.342;2023-04-16T10:14:53;10.60;99.90
34833;DHT22;55941;50.800;4.342;2023-04-16T10:17:21;10.60;99.90
34833;DHT22;55941;50.800;4.342;2023-04-16T10:19:49;10.70;99.90
34833;DHT22;55941;50.800;4.342;2023-04-16T10:22:15;10.60;99.90
34833;DHT22;55941;50.800;4.342;2023-04-16T10:24:42;10.60;99.90
34833;DHT22;55941;50.800;4.342;2023-04-16T10:27:08;10.60;99.90
34833;DHT22;55941;50.800;4.342;2023-04-16T10:29:35;10.60;99.90
34833;DHT22;55941;50.800;4.342;2023-04-16T10:32:02;10.70;99.90
34833;DHT22;55941;50.800;4.342;2023-04-16T10:34:30;10.70;99.90
34833;DHT22;55941;50.800;4.342;2023-04-16T10:36:56;10.70;99.90
34833;DHT22;55941;50.800;4.342;2023-04-16T10:39:24;10.60;99.90
34833;DHT22;55941;50.800;4.342;2023-04-16T10:42:07;10.70;99.90
34833;DHT22;55941;50.800;4.342;2023-04-16T10:44:33;10.70;99.90
34833;DHT22;55941;50.800;4.342;2023-04-16T10:47:00;10.70;99.90
34833;DHT22;55941;50.800;4.342;2023-04-16T10:49:26;10.60;99.90
34833;DHT22;55941;50.800;4.342;2023-04-16T10:51:53;10.70;99.90
34833;DHT22;55941;50.800;4.342;2023-04-16T10:56:51;10.60;99.90
34833;DHT22;55941;50.800;4.342;2023-04-16T10:59:19;10.50;99.90
34833;DHT22;55941;50.800;4.342;2023-04-16T11:01:47;10.70;99.90
34833;DHT22;55941;50.800;4.342;2023-04-16T11:04:37;10.70;99.90
34833;DHT22;55941;50.800;4.342;2023-04-16T11:10:03;10.80;99.90
34833;DHT22;55941;50.800;4.342;2023-04-16T11:12:45;10.70;99.90
34833;DHT22;55941;50.800;4.342;2023-04-16T11:15:15;10.70;99.90
34833;DHT22;55941;50.800;4.342;2023-04-16T11:17:50;10.80;99.90
34833;DHT22;55941;50.800;4.342;2023-04-16T11:22:45;10.70;99.90
34833;DHT22;55941;50.800;4.342;2023-04-16T11:25:11;10.80;99.90
34833;DHT22;55941;50.800;4.342;2023-04-16T11:27:37;10.80;99.90
34833;DHT22;55941;50.800;4.342;2023-04-16T11:30:05;10.80;99.90
34833;DHT22;55941;50.800;4.342;2023-04-16T11:32:33;10.90;99.90
34833;DHT22;55941;50.800;4.342;2023-04-16T11:35:11;11.00;99.90
34833;DHT22;55941;50.800;4.342;2023-04-16T11:37:37;11.00;99.90
34833;DHT22;55941;50.800;4.342;2023-04-16T11:40:07;11.00;99.90
34833;DHT22;55941;50.800;4.342;2023-04-16T11:42:35;10.90;99.90
34833;DHT22;55941;50.800;4.342;2023-04-16T11:45:06;11.00;99.90
34833;DHT22;55941;50.800;4.342;2023-04-16T11:47:53;11.00;99.90
34833;DHT22;55941;50.800;4.342;2023-04-16T11:50:23;11.10;99.90
34833;DHT22;55941;50.800;4.342;2023-04-16T11:52:50;11.10;99.90
34833;DHT22;55941;50.800;4.342;2023-04-16T11:55:18;11.10;99.90
34833;DHT22;55941;50.800;4.342;2023-04-16T11:57:45;11.30;99.90
34833;DHT22;55941;50.800;4.342;2023-04-16T12:00:12;11.30;99.90
34833;DHT22;55941;50.800;4.342;2023-04-16T12:02:43;11.40;99.90
34833;DHT22;55941;50.800;4.342;2023-04-16T12:05:32;11.40;99.90
34833;DHT22;55941;50.800;4.342;2023-04-16T12:08:04;11.40;99.90
34833;DHT22;55941;50.800;4.342;2023-04-16T12:10:33;11.40;99.90
34833;DHT22;55941;50.800;4.342;2023-04-16T12:13:13;11.40;99.90
34833;DHT22;55941;50.800;4.342;2023-04-16T12:15:54;11.40;99.90
34833;DHT22;55941;50.800;4.342;2023-04-16T12:18:22;11.40;99.90
34833;DHT22;55941;50.800;4.342;2023-04-16T12:20:48;11.40;99.90
34833;DHT22;55941;50.800;4.342;2023-04-16T12:23:27;11.50;99.90
34833;DHT22;55941;50.800;4.342;2023-04-16T12:25:53;11.40;99.90
34833;DHT22;55941;50.800;4.342;2023-04-16T12:28:31;11.40;99.90
34833;DHT22;55941;50.800;4.342;2023-04-16T12:30:57;11.30;99.90
34833;DHT22;55941;50.800;4.342;2023-04-16T12:33:24;11.40;99.90
34833;DHT22;55941;50.800;4.342;2023-04-16T12:35:50;11.50;99.90
34833;DHT22;55941;50.800;4.342;2023-04-16T12:38:17;11.50;99.90
34833;DHT22;55941;50.800;4.342;2023-04-16T12:40:44;11.40;99.90
34833;DHT22;55941;50.800;4.342;2023-04-16T12:43:10;11.50;99.90
34833;DHT22;55941;50.800;4.342;2023-04-16T12:45:36;11.60;99.90
34833;DHT22;55941;50.800;4.342;2023-04-16T12:48:03;11.60;99.90
34833;DHT22;55941;50.800;4.342;2023-04-16T12:50:29;11.60;99.90
34833;DHT22;55941;50.800;4.342;2023-04-16T12:52:56;11.60;99.90
34833;DHT22;55941;50.800;4.342;2023-04-16T12:55:22;11.70;99.90
34833;DHT22;55941;50.800;4.342;2023-04-16T12:57:50;11.80;99.90
34833;DHT22;55941;50.800;4.342;2023-04-16T13:00:17;11.80;99.90
34833;DHT22;55941;50.800;4.342;2023-04-16T13:02:44;11.80;99.90
34833;DHT22;55941;50.800;4.342;2023-04-16T13:05:12;11.90;99.90
34833;DHT22;55941;50.800;4.342;2023-04-16T13:07:43;11.80;99.90
34833;DHT22;55941;50.800;4.342;2023-04-16T13:10:09;11.90;99.90
34833;DHT22;55941;50.800;4.342;2023-04-16T13:12:35;11.90;99.90
34833;DHT22;55941;50.800;4.342;2023-04-16T13:15:04;11.80;99.90
34833;DHT22;55941;50.800;4.342;2023-04-16T13:17:31;11.90;99.90
34833;DHT22;55941;50.800;4.342;2023-04-16T13:19:57;11.90;99.90
34833;DHT22;55941;50.800;4.342;2023-04-16T13:22:23;12.00;99.90
34833;DHT22;55941;50.800;4.342;2023-04-16T13:24:50;12.10;99.90
34833;DHT22;55941;50.800;4.342;2023-04-16T13:27:16;12.10;99.90
34833;DHT22;55941;50.800;4.342;2023-04-16T13:29:42;12.10;99.90
34833;DHT22;55941;50.800;4.342;2023-04-16T13:32:11;12.20;99.90
34833;DHT22;55941;50.800;4.342;2023-04-16T13:34:38;12.10;99.90
34833;DHT22;55941;50.800;4.342;2023-04-16T13:37:04;12.00;99.90
34833;DHT22;55941;50.800;4.342;2023-04-16T13:39:30;12.00;99.90
34833;DHT22;55941;50.800;4.342;2023-04-16T13:41:56;12.00;99.90
34833;DHT22;55941;50.800;4.342;2023-04-16T13:44:22;12.10;99.90
34833;DHT22;55941;50.800;4.342;2023-04-16T13:46:48;12.00;99.90
34833;DHT22;55941;50.800;4.342;2023-04-16T13:49:14;12.00;99.90
34833;DHT22;55941;50.800;4.342;2023-04-16T13:51:44;12.10;99.90
34833;DHT22;55941;50.800;4.342;2023-04-16T13:54:12;12.00;99.90
34833;DHT22;55941;50.800;4.342;2023-04-16T13:56:38;12.00;99.90
34833;DHT22;55941;50.800;4.342;2023-04-16T13:59:05;12.10;99.90
34833;DHT22;55941;50.800;4.342;2023-04-16T14:01:31;12.20;99.90
34833;DHT22;55941;50.800;4.342;2023-04-16T14:03:57;12.30;99.90
34833;DHT22;55941;50.800;4.342;2023-04-16T14:06:26;12.30;99.90
34833;DHT22;55941;50.800;4.342;2023-04-16T14:08:52;12.40;99.90
34833;DHT22;55941;50.800;4.342;2023-04-16T14:11:18;12.50;99.90
34833;DHT22;55941;50.800;4.342;2023-04-16T14:13:45;12.40;99.90
34833;DHT22;55941;50.800;4.342;2023-04-16T14:16:11;12.50;99.90
34833;DHT22;55941;50.800;4.342;2023-04-16T14:18:37;12.60;99.90
34833;DHT22;55941;50.800;4.342;2023-04-16T14:21:07;12.80;99.90
34833;DHT22;55941;50.800;4.342;2023-04-16T14:23:33;12.70;99.90
34833;DHT22;55941;50.800;4.342;2023-04-16T14:25:59;12.80;99.90
34833;DHT22;55941;50.800;4.342;2023-04-16T14:28:25;12.80;99.90
34833;DHT22;55941;50.800;4.342;2023-04-16T14:30:51;12.70;99.90
34833;DHT22;55941;50.800;4.342;2023-04-16T14:33:17;12.70;99.90
34833;DHT22;55941;50.800;4.342;2023-04-16T14:35:43;12.90;99.90
34833;DHT22;55941;50.800;4.342;2023-04-16T14:38:10;12.90;99.90
34833;DHT22;55941;50.800;4.342;2023-04-16T14:40:35;13.00;99.90
34833;DHT22;55941;50.800;4.342;2023-04-16T14:43:02;13.00;99.90
34833;DHT22;55941;50.800;4.342;2023-04-16T14:45:28;13.00;99.90
34833;DHT22;55941;50.800;4.342;2023-04-16T14:47:55;13.10;99.90
34833;DHT22;55941;50.800;4.342;2023-04-16T14:50:21;13.00;99.90
34833;DHT22;55941;50.800;4.342;2023-04-16T14:52:47;13.00;99.90
34833;DHT22;55941;50.800;4.342;2023-04-16T14:55:14;13.00;99.90
34833;DHT22;55941;50.800;4.342;2023-04-16T14:57:39;13.00;99.90
34833;DHT22;55941;50.800;4.342;2023-04-16T15:00:06;13.10;99.90
34833;DHT22;55941;50.800;4.342;2023-04-16T15:02:33;13.10;99.90
34833;DHT22;55941;50.800;4.342;2023-04-16T15:05:00;12.90;99.90
34833;DHT22;55941;50.800;4.342;2023-04-16T15:07:26;12.80;99.90
34833;DHT22;55941;50.800;4.342;2023-04-16T15:09:52;12.90;99.90
34833;DHT22;55941;50.800;4.342;2023-04-16T15:12:17;12.80;99.90
34833;DHT22;55941;50.800;4.342;2023-04-16T15:14:43;12.80;99.90
34833;DHT22;55941;50.800;4.342;2023-04-16T15:17:09;12.80;99.90
34833;DHT22;55941;50.800;4.342;2023-04-16T15:19:35;12.70;99.90
34833;DHT22;55941;50.800;4.342;2023-04-16T15:22:04;12.60;99.90
34833;DHT22;55941;50.800;4.342;2023-04-16T15:24:32;12.60;99.90
34833;DHT22;55941;50.800;4.342;2023-04-16T15:26:58;12.50;99.90
34833;DHT22;55941;50.800;4.342;2023-04-16T15:29:26;12.50;99.90
34833;DHT22;55941;50.800;4.342;2023-04-16T15:31:52;12.40;99.90
34833;DHT22;55941;50.800;4.342;2023-04-16T15:34:18;12.30;99.90
34833;DHT22;55941;50.800;4.342;2023-04-16T15:36:44;12.40;99.90
34833;DHT22;55941;50.800;4.342;2023-04-16T15:39:10;12.40;99.90
34833;DHT22;55941;50.800;4.342;2023-04-16T15:41:36;12.30;99.90
34833;DHT22;55941;50.800;4.342;2023-04-16T15:44:04;12.40;99.90